createdAt,value
2022-11-24T00:02:14.057Z,2.50
2022-11-24T00:04:44.379Z,2.50
2022-11-24T00:07:14.267Z,2.77
2022-11-24T00:09:45.185Z,2.80
2022-11-24T00:12:17.643Z,3.30
2022-11-24T00:14:49.261Z,2.43
2022-11-24T00:17:19.103Z,2.60
2022-11-24T00:19:52.974Z,3.00
2022-11-24T00:22:24.178Z,3.10
2022-11-24T00:24:54.513Z,2.70
2022-11-24T00:27:26.930Z,3.17
2022-11-24T00:29:58.277Z,3.10
2022-11-24T00:32:30.294Z,3.27
2022-11-24T00:35:00.273Z,2.90
2022-11-24T00:37:32.363Z,2.80
2022-11-24T00:40:03.425Z,3.70
2022-11-24T00:42:35.977Z,3.13
2022-11-24T00:45:13.578Z,3.00
2022-11-24T00:47:44.470Z,3.00
2022-11-24T00:50:15.440Z,2.20
2022-11-24T00:52:45.725Z,2.73
2022-11-24T00:55:16.193Z,2.70
2022-11-24T00:57:48.801Z,3.67
2022-11-24T01:00:20.564Z,2.73
2022-11-24T01:02:50.439Z,3.10
2022-11-24T01:05:24.526Z,3.07
2022-11-24T01:07:54.766Z,3.40
2022-11-24T01:10:25.712Z,2.90
2022-11-24T01:12:58.162Z,3.20
2022-11-24T01:15:30.428Z,3.60
2022-11-24T01:18:00.560Z,3.20
2022-11-24T01:20:30.753Z,3.87
2022-11-24T01:23:00.663Z,3.37
2022-11-24T01:25:31.213Z,4.27
2022-11-24T01:28:03.659Z,3.07
2022-11-24T01:30:34.626Z,4.30
2022-11-24T01:33:09.005Z,4.73
2022-11-24T01:35:40.136Z,3.50
2022-11-24T01:38:09.995Z,4.83
2022-11-24T01:40:40.723Z,4.87
2022-11-24T01:43:21.310Z,4.23
2022-11-24T01:45:52.191Z,5.07
2022-11-24T01:48:27.913Z,4.93
2022-11-24T01:51:10.119Z,4.70
2022-11-24T01:53:41.808Z,5.50
2022-11-24T01:56:13.406Z,3.43
2022-11-24T01:58:50.900Z,5.50
2022-11-24T02:01:22.241Z,5.67
2022-11-24T02:03:52.717Z,5.37
2022-11-24T02:06:30.170Z,6.40
2022-11-24T02:09:03.513Z,5.43
2022-11-24T02:11:38.588Z,6.90
2022-11-24T02:14:14.343Z,6.57
2022-11-24T02:16:47.124Z,6.30
2022-11-24T02:19:26.402Z,5.87
2022-11-24T02:22:00.097Z,6.00
2022-11-24T02:24:40.400Z,6.43
2022-11-24T02:27:13.419Z,6.67
2022-11-24T02:29:46.549Z,5.80
2022-11-24T02:32:19.118Z,6.63
2022-11-24T02:34:49.589Z,6.07
2022-11-24T02:37:19.530Z,6.70
2022-11-24T02:39:49.994Z,6.43
2022-11-24T02:42:22.877Z,6.20
2022-11-24T02:44:58.361Z,6.50
2022-11-24T02:47:28.934Z,7.20
2022-11-24T02:50:00.045Z,6.90
2022-11-24T02:52:30.007Z,6.80
2022-11-24T02:55:00.169Z,7.20
2022-11-24T02:57:32.677Z,8.83
2022-11-24T03:00:03.427Z,7.90
2022-11-24T03:02:33.379Z,8.37
2022-11-24T03:05:03.675Z,7.63
2022-11-24T03:07:33.654Z,7.23
2022-11-24T03:10:04.831Z,5.57
2022-11-24T03:12:37.451Z,7.07
2022-11-24T03:15:09.508Z,8.43
2022-11-24T03:17:39.566Z,7.27
2022-11-24T03:20:11.511Z,7.60
2022-11-24T03:22:41.713Z,7.00
2022-11-24T03:25:14.634Z,5.10
2022-11-24T03:27:47.348Z,5.03
2022-11-24T03:30:18.501Z,7.50
2022-11-24T03:32:48.430Z,5.40
2022-11-24T03:35:19.394Z,7.07
2022-11-24T03:37:49.694Z,7.20
2022-11-24T03:40:21.472Z,7.00
2022-11-24T03:42:53.978Z,6.27
2022-11-24T03:48:14.754Z,8.13
2022-11-24T03:50:44.806Z,5.90
2022-11-24T03:53:14.694Z,6.30
2022-11-24T03:55:47.045Z,5.73
2022-11-24T03:58:19.562Z,5.40
2022-11-24T04:00:51.797Z,6.23
2022-11-24T04:03:22.356Z,6.00
2022-11-24T04:05:53.610Z,7.37
2022-11-24T04:08:23.713Z,5.90
2022-11-24T04:10:56.350Z,5.03
2022-11-24T04:13:27.050Z,6.10
2022-11-24T04:15:57.800Z,7.80
2022-11-24T04:18:28.026Z,8.50
2022-11-24T04:20:58.822Z,9.10
2022-11-24T04:23:28.783Z,7.27
2022-11-24T04:25:59.350Z,7.33
2022-11-24T04:28:31.850Z,6.90
2022-11-24T04:31:05.078Z,5.60
2022-11-24T04:33:35.178Z,6.40
2022-11-24T04:36:05.699Z,6.17
2022-11-24T04:39:25.565Z,8.00
2022-11-24T04:41:26.233Z,6.20
2022-11-24T04:43:58.742Z,6.47
2022-11-24T04:46:30.033Z,7.07
2022-11-24T04:48:59.991Z,6.47
2022-11-24T04:51:30.553Z,6.30
2022-11-24T04:54:00.855Z,6.37
2022-11-24T04:56:30.757Z,5.97
2022-11-24T04:59:08.182Z,7.60
2022-11-24T05:01:38.726Z,5.93
2022-11-24T05:04:08.951Z,5.77
2022-11-24T05:06:39.185Z,5.80
2022-11-24T05:09:10.722Z,5.63
2022-11-24T05:11:40.703Z,4.80
2022-11-24T05:14:13.321Z,6.50
2022-11-24T05:16:44.000Z,5.80
2022-11-24T05:19:14.247Z,5.20
2022-11-24T05:21:45.077Z,6.63
2022-11-24T05:24:15.206Z,5.33
2022-11-24T05:26:45.485Z,5.00
2022-11-24T05:29:18.196Z,6.13
2022-11-24T05:31:49.332Z,6.07
2022-11-24T05:34:19.716Z,6.17
2022-11-24T05:36:56.590Z,7.17
2022-11-24T05:39:26.490Z,5.90
2022-11-24T05:41:57.679Z,5.83
2022-11-24T05:44:30.483Z,6.10
2022-11-24T05:47:01.025Z,6.73
2022-11-24T05:49:30.974Z,5.00
2022-11-24T05:52:01.525Z,6.13
2022-11-24T05:54:32.047Z,5.37
2022-11-24T05:57:02.208Z,5.70
2022-11-24T05:59:35.987Z,5.50
2022-11-24T06:02:06.380Z,5.90
2022-11-24T06:04:37.089Z,4.47
2022-11-24T06:07:10.181Z,4.43
2022-11-24T06:09:41.266Z,4.73
2022-11-24T06:12:12.550Z,5.73
2022-11-24T06:14:45.187Z,6.80
2022-11-24T06:17:15.950Z,5.43
2022-11-24T06:19:47.963Z,5.73
2022-11-24T06:22:19.351Z,6.03
2022-11-24T06:24:50.732Z,6.07
2022-11-24T06:27:21.040Z,5.83
2022-11-24T06:29:53.760Z,6.30
2022-11-24T06:32:24.670Z,6.10
2022-11-24T06:34:54.564Z,6.83
2022-11-24T06:37:24.763Z,6.20
2022-11-24T06:39:54.793Z,5.50
2022-11-24T06:42:24.714Z,7.83
2022-11-24T06:44:57.215Z,7.03
2022-11-24T06:47:27.650Z,5.97
2022-11-24T06:50:00.543Z,8.43
2022-11-24T06:52:31.360Z,6.33
2022-11-24T06:55:16.680Z,6.13
2022-11-24T06:57:47.760Z,5.60
2022-11-24T07:00:22.913Z,6.40
2022-11-24T07:02:53.187Z,5.53
2022-11-24T07:05:23.130Z,7.50
2022-11-24T07:07:53.791Z,6.20
2022-11-24T07:10:24.034Z,6.10
2022-11-24T07:12:54.431Z,5.43
2022-11-24T07:15:26.917Z,5.60
2022-11-24T07:17:57.152Z,5.97
2022-11-24T07:20:27.078Z,6.43
2022-11-24T07:22:59.247Z,5.17
2022-11-24T07:25:29.533Z,5.17
2022-11-24T07:28:00.604Z,5.60
2022-11-24T07:30:33.188Z,5.33
2022-11-24T07:33:04.857Z,5.60
2022-11-24T07:35:34.881Z,6.17
2022-11-24T07:38:05.587Z,5.60
2022-11-24T07:40:35.585Z,5.47
2022-11-24T07:43:05.854Z,5.10
2022-11-24T07:45:40.725Z,4.97
2022-11-24T07:48:11.864Z,5.70
2022-11-24T07:50:42.219Z,5.00
2022-11-24T07:53:13.626Z,5.27
2022-11-24T07:55:43.671Z,5.67
2022-11-24T07:58:14.032Z,4.60
2022-11-24T08:00:46.665Z,5.77
2022-11-24T08:03:17.249Z,6.27
2022-11-24T08:06:08.225Z,4.97
2022-11-24T08:08:37.710Z,5.67
2022-11-24T08:11:09.917Z,5.80
2022-11-24T08:13:40.517Z,4.90
2022-11-24T08:16:15.202Z,5.77
2022-11-24T08:18:46.272Z,6.20
2022-11-24T08:21:17.898Z,6.50
2022-11-24T08:23:47.852Z,6.23
2022-11-24T08:26:20.092Z,6.03
2022-11-24T08:28:50.739Z,6.10
2022-11-24T08:31:25.301Z,6.90
2022-11-24T08:33:55.290Z,7.10
2022-11-24T08:36:25.602Z,6.23
2022-11-24T08:38:58.494Z,6.20
2022-11-24T08:41:30.069Z,6.27
2022-11-24T08:44:00.366Z,7.40
2022-11-24T08:46:33.812Z,6.77
2022-11-24T08:49:03.817Z,4.77
2022-11-24T08:51:33.767Z,6.13
2022-11-24T08:54:04.915Z,7.50
2022-11-24T08:56:36.038Z,5.73
2022-11-24T08:59:06.369Z,6.30
2022-11-24T09:01:41.872Z,5.87
2022-11-24T09:04:11.874Z,5.13
2022-11-24T09:06:41.797Z,5.70
2022-11-24T09:09:13.284Z,6.30
2022-11-24T09:11:43.710Z,6.53
2022-11-24T09:14:14.090Z,5.10
2022-11-24T09:16:46.969Z,6.33
2022-11-24T09:19:16.983Z,6.47
2022-11-24T09:21:47.115Z,5.47
2022-11-24T09:24:17.002Z,6.07
2022-11-24T09:26:47.885Z,6.00
2022-11-24T09:29:18.885Z,5.43
2022-11-24T09:31:52.588Z,5.77
2022-11-24T09:34:22.610Z,5.23
2022-11-24T09:36:52.950Z,3.90
2022-11-24T09:39:23.187Z,4.50
2022-11-24T09:42:05.987Z,5.43
2022-11-24T09:45:15.076Z,6.27
2022-11-24T09:48:01.522Z,5.93
2022-11-24T09:50:35.500Z,4.60
2022-11-24T09:53:11.509Z,4.53
2022-11-24T09:55:45.744Z,5.53
2022-11-24T09:58:24.098Z,6.50
2022-11-24T10:00:56.527Z,6.10
2022-11-24T10:03:34.527Z,4.50
2022-11-24T10:06:13.206Z,4.90
2022-11-24T10:09:11.547Z,4.97
2022-11-24T10:11:48.911Z,4.30
2022-11-24T10:15:04.010Z,5.67
2022-11-24T10:18:00.590Z,4.53
2022-11-24T10:20:48.066Z,4.37
2022-11-24T10:23:38.367Z,5.63
2022-11-24T10:26:18.426Z,7.70
2022-11-24T10:28:55.750Z,9.17
2022-11-24T10:31:32.732Z,12.97
2022-11-24T10:34:12.135Z,17.70
2022-11-24T10:36:50.677Z,5.63
2022-11-24T10:39:23.793Z,12.20
2022-11-24T10:41:59.928Z,6.03
2022-11-24T10:44:29.947Z,6.20
2022-11-24T10:47:00.337Z,9.30
2022-11-24T10:49:35.257Z,6.50
2022-11-24T10:52:16.951Z,7.43
2022-11-24T10:54:57.902Z,6.80
2022-11-24T10:57:32.364Z,6.83
2022-11-24T11:00:03.248Z,6.20
2022-11-24T11:02:39.977Z,6.10
2022-11-24T11:05:42.438Z,5.60
2022-11-24T11:08:21.303Z,6.30
2022-11-24T11:10:53.357Z,6.87
2022-11-24T11:13:29.459Z,6.60
2022-11-24T11:16:00.854Z,8.37
2022-11-24T11:18:35.663Z,6.03
2022-11-24T11:21:06.515Z,6.97
2022-11-24T11:23:40.149Z,6.60
2022-11-24T11:26:34.731Z,5.77
2022-11-24T11:35:14.461Z,6.73
2022-11-24T11:37:46.630Z,6.67
2022-11-24T11:40:22.937Z,6.00
2022-11-24T11:43:02.806Z,5.73
2022-11-24T11:45:38.054Z,6.00
2022-11-24T11:48:27.567Z,6.37
2022-11-24T11:53:59.218Z,5.20
2022-11-24T11:56:35.671Z,7.10
2022-11-24T11:59:31.633Z,9.17
2022-11-24T12:02:36.166Z,7.50
2022-11-24T12:05:12.711Z,6.00
2022-11-24T12:08:02.357Z,6.90
2022-11-24T12:10:41.723Z,5.87
2022-11-24T12:13:44.706Z,6.53
2022-11-24T12:16:31.094Z,6.70
2022-11-24T12:19:17.801Z,6.50
2022-11-24T12:21:56.260Z,6.80
2022-11-24T12:24:35.537Z,6.13
2022-11-24T12:27:12.200Z,5.27
2022-11-24T12:30:08.459Z,5.97
2022-11-24T12:33:07.529Z,5.50
2022-11-24T12:35:41.570Z,6.63
2022-11-24T12:38:35.159Z,5.90
2022-11-24T12:41:45.759Z,5.47
2022-11-24T12:44:38.801Z,4.80
2022-11-24T12:47:18.728Z,4.83
2022-11-24T12:50:06.216Z,4.33
2022-11-24T12:52:40.544Z,4.40
2022-11-24T12:55:19.467Z,3.60
2022-11-24T12:57:58.422Z,3.20
2022-11-24T13:00:35.521Z,4.30
2022-11-24T13:03:28.381Z,4.23
2022-11-24T13:06:03.902Z,3.13
2022-11-24T13:08:34.762Z,4.30
2022-11-24T13:11:29.744Z,3.83
2022-11-24T13:14:02.137Z,4.23
2022-11-24T13:16:37.064Z,3.67
2022-11-24T13:19:18.821Z,3.20
2022-11-24T13:22:03.153Z,3.20
2022-11-24T13:24:36.895Z,3.13
2022-11-24T13:27:42.610Z,3.30
2022-11-24T13:30:54.764Z,3.37
2022-11-24T13:33:42.785Z,2.60
2022-11-24T13:36:37.219Z,3.40
2022-11-24T13:39:21.528Z,2.73
2022-11-24T13:42:41.886Z,3.20
2022-11-24T13:45:03.578Z,2.90
2022-11-24T13:47:45.293Z,2.27
2022-11-24T13:50:27.178Z,2.60
2022-11-24T13:53:12.234Z,2.20
2022-11-24T13:55:57.609Z,2.87
2022-11-24T13:58:33.479Z,2.17
2022-11-24T14:01:16.288Z,2.60
2022-11-24T14:04:29.922Z,2.40
2022-11-24T14:06:51.312Z,2.30
2022-11-24T14:09:39.897Z,2.13
2022-11-24T14:12:16.816Z,2.60
2022-11-24T14:14:49.064Z,2.33
2022-11-24T14:17:23.297Z,2.50
2022-11-24T14:19:54.757Z,2.03
2022-11-24T14:22:26.915Z,2.33
2022-11-24T14:25:01.429Z,2.27
2022-11-24T14:27:34.305Z,2.30
2022-11-24T14:30:07.759Z,2.30
2022-11-24T14:32:37.963Z,2.00
2022-11-24T14:35:25.434Z,1.77
2022-11-24T14:37:57.219Z,2.30
2022-11-24T14:40:45.833Z,1.80
2022-11-24T14:43:23.074Z,2.30
2022-11-24T14:45:55.692Z,2.33
2022-11-24T14:48:30.027Z,2.00
2022-11-24T14:51:12.207Z,3.07
2022-11-24T14:53:47.511Z,2.20
2022-11-24T14:56:29.137Z,2.37
2022-11-24T14:59:00.888Z,2.53
2022-11-24T15:01:36.646Z,2.60
2022-11-24T15:04:46.366Z,2.60
2022-11-24T15:07:19.645Z,2.97
2022-11-24T15:09:54.671Z,3.30
2022-11-24T15:12:31.362Z,3.07
2022-11-24T15:15:04.465Z,2.33
2022-11-24T15:17:34.984Z,2.57
2022-11-24T15:20:10.883Z,2.80
2022-11-24T15:22:43.792Z,2.70
2022-11-24T15:25:33.660Z,2.70
2022-11-24T15:28:06.685Z,2.20
2022-11-24T15:30:38.184Z,2.27
2022-11-24T15:33:21.055Z,2.67
2022-11-24T15:35:52.416Z,2.87
2022-11-24T15:38:23.300Z,3.20
2022-11-24T15:40:55.169Z,2.93
2022-11-24T15:43:33.289Z,3.23
2022-11-24T15:46:04.204Z,2.47
2022-11-24T15:48:35.351Z,3.13
2022-11-24T15:51:07.463Z,3.07
2022-11-24T15:53:45.151Z,3.97
2022-11-24T15:56:21.752Z,3.97
2022-11-24T15:58:55.704Z,3.97
2022-11-24T16:01:27.439Z,3.60
2022-11-24T16:03:58.382Z,4.60
2022-11-24T16:06:28.363Z,4.07
2022-11-24T16:08:59.404Z,4.57
2022-11-24T16:11:29.378Z,4.70
2022-11-24T16:14:02.277Z,5.00
2022-11-24T16:16:32.228Z,4.90
2022-11-24T16:19:03.637Z,4.67
2022-11-24T16:21:33.752Z,5.13
2022-11-24T16:24:04.402Z,4.93
2022-11-24T16:26:34.913Z,4.90
2022-11-24T16:29:09.957Z,4.93
2022-11-24T16:31:39.922Z,5.70
2022-11-24T16:34:10.478Z,6.10
2022-11-24T16:36:40.347Z,6.40
2022-11-24T16:39:10.534Z,6.17
2022-11-24T16:41:40.615Z,6.70
2022-11-24T16:44:13.265Z,7.17
2022-11-24T16:46:43.162Z,6.30
2022-11-24T16:49:13.373Z,6.63
2022-11-24T16:51:43.429Z,7.10
2022-11-24T16:54:14.237Z,7.00
2022-11-24T16:56:44.748Z,6.70
2022-11-24T16:59:18.648Z,6.50
2022-11-24T17:01:50.761Z,6.07
2022-11-24T17:04:21.162Z,6.67
2022-11-24T17:06:51.467Z,6.50
2022-11-24T17:09:22.575Z,6.70
2022-11-24T17:11:52.779Z,6.60
2022-11-24T17:14:25.319Z,7.03
2022-11-24T17:16:55.227Z,6.20
2022-11-24T17:19:25.369Z,6.37
2022-11-24T17:21:55.268Z,7.27
2022-11-24T17:24:25.487Z,6.60
2022-11-24T17:26:56.516Z,7.13
2022-11-24T17:29:30.724Z,6.30
2022-11-24T17:32:04.058Z,6.20
2022-11-24T17:34:35.445Z,7.50
2022-11-24T17:37:05.724Z,6.60
2022-11-24T17:39:38.983Z,7.13
2022-11-24T17:42:09.087Z,6.60
2022-11-24T17:44:42.162Z,6.50
2022-11-24T17:47:12.025Z,5.80
2022-11-24T17:49:42.599Z,6.70
2022-11-24T17:52:12.469Z,6.33
2022-11-24T17:54:46.639Z,5.63
2022-11-24T17:57:16.909Z,7.23
2022-11-24T17:59:51.800Z,7.10
2022-11-24T18:02:21.860Z,5.63
2022-11-24T18:04:52.477Z,5.97
2022-11-24T18:07:22.447Z,6.00
2022-11-24T18:09:53.316Z,6.00
2022-11-24T18:12:23.222Z,6.07
2022-11-24T18:14:56.634Z,6.37
2022-11-24T18:17:26.569Z,6.30
2022-11-24T18:19:56.878Z,6.40
2022-11-24T18:22:50.167Z,6.37
2022-11-24T18:25:17.104Z,6.73
2022-11-24T18:27:47.093Z,6.90
2022-11-24T18:30:21.288Z,5.90
2022-11-24T18:32:51.169Z,5.93
2022-11-24T18:35:21.776Z,6.60
2022-11-24T18:37:51.711Z,6.47
2022-11-24T18:40:22.339Z,6.10
2022-11-24T18:42:52.264Z,6.83
2022-11-24T18:45:25.494Z,6.90
2022-11-24T18:47:55.492Z,6.70
2022-11-24T18:50:25.923Z,6.40
2022-11-24T18:52:56.237Z,5.90
2022-11-24T18:55:26.926Z,4.93
2022-11-24T18:57:57.520Z,6.17
2022-11-24T19:00:30.421Z,5.03
2022-11-24T19:03:00.324Z,6.03
2022-11-24T19:05:30.624Z,5.87
2022-11-24T19:08:00.521Z,6.13
2022-11-24T19:10:30.769Z,5.33
2022-11-24T19:13:00.644Z,5.63
2022-11-24T19:15:36.601Z,6.13
2022-11-24T19:18:06.776Z,6.53
2022-11-24T19:20:38.458Z,6.90
2022-11-24T19:23:08.390Z,6.93
2022-11-24T19:25:38.984Z,6.07
2022-11-24T19:28:09.188Z,6.57
2022-11-24T19:30:42.005Z,6.37
2022-11-24T19:33:11.920Z,5.80
2022-11-24T19:35:42.497Z,7.07
2022-11-24T19:38:15.125Z,6.80
2022-11-24T19:40:47.572Z,5.90
2022-11-24T19:43:17.509Z,6.73
2022-11-24T19:45:51.365Z,5.50
2022-11-24T19:48:21.299Z,5.90
2022-11-24T19:50:51.769Z,7.27
2022-11-24T19:53:21.663Z,5.77
2022-11-24T19:55:52.305Z,5.90
2022-11-24T19:58:22.318Z,4.50
2022-11-24T20:00:55.495Z,6.90
2022-11-24T20:03:25.428Z,4.63
2022-11-24T20:05:58.978Z,6.37
2022-11-24T20:08:32.279Z,6.47
2022-11-24T20:11:06.829Z,5.47
2022-11-24T20:13:37.859Z,5.53
2022-11-24T20:16:13.358Z,6.33
2022-11-24T20:18:45.284Z,6.37
2022-11-24T20:21:17.326Z,6.40
2022-11-24T20:23:48.841Z,5.57
2022-11-24T20:26:23.790Z,6.60
2022-11-24T20:28:54.697Z,6.40
2022-11-24T20:31:33.802Z,6.33
2022-11-24T20:34:05.505Z,4.33
2022-11-24T20:36:38.236Z,4.60
2022-11-24T20:39:10.413Z,4.80
2022-11-24T20:41:42.165Z,4.67
2022-11-24T20:44:15.325Z,3.93
2022-11-24T20:46:49.820Z,4.60
2022-11-24T20:49:21.993Z,4.40
2022-11-24T20:51:54.996Z,5.27
2022-11-24T20:54:25.029Z,4.50
2022-11-24T20:56:54.925Z,4.40
2022-11-24T20:59:27.849Z,5.80
2022-11-24T21:02:00.392Z,5.87
2022-11-24T21:04:31.181Z,4.60
2022-11-24T21:07:01.106Z,4.70
2022-11-24T21:09:32.046Z,3.73
2022-11-24T21:12:01.953Z,3.83
2022-11-24T21:14:35.389Z,3.70
2022-11-24T21:17:08.082Z,3.60
2022-11-24T21:19:38.331Z,4.43
2022-11-24T21:22:08.196Z,3.20
2022-11-24T21:24:39.313Z,3.77
2022-11-24T21:27:09.269Z,3.60
2022-11-24T21:29:40.710Z,3.27
2022-11-24T21:32:13.285Z,3.97
2022-11-24T21:34:43.237Z,3.23
2022-11-24T21:37:13.128Z,3.80
2022-11-24T21:39:45.045Z,3.50
2022-11-24T21:42:15.017Z,2.70
2022-11-24T21:44:45.622Z,3.63
2022-11-24T21:47:18.644Z,3.13
2022-11-24T21:49:49.032Z,2.90
2022-11-24T21:52:19.029Z,2.93
2022-11-24T21:54:49.331Z,3.00
2022-11-24T21:57:19.245Z,4.03
2022-11-24T21:59:50.458Z,2.80
2022-11-24T22:02:23.121Z,3.97
2022-11-24T22:04:53.595Z,2.87
2022-11-24T22:07:23.561Z,3.03
2022-11-24T22:09:54.504Z,3.93
2022-11-24T22:12:24.403Z,2.50
2022-11-24T22:14:54.935Z,2.60
2022-11-24T22:17:27.446Z,3.10
2022-11-24T22:19:58.229Z,3.00
2022-11-24T22:22:28.496Z,3.03
2022-11-24T22:24:58.713Z,3.00
2022-11-24T22:27:28.631Z,2.07
2022-11-24T22:29:59.445Z,3.07
2022-11-24T22:32:31.957Z,2.80
2022-11-24T22:35:02.063Z,2.97
2022-11-24T22:37:31.970Z,3.60
2022-11-24T22:40:04.539Z,2.83
2022-11-24T22:42:34.422Z,3.60
2022-11-24T22:45:04.682Z,2.43
2022-11-24T22:47:37.194Z,2.97
2022-11-24T22:50:09.062Z,4.13
2022-11-24T22:52:40.525Z,3.50
2022-11-24T22:55:11.839Z,2.60
2022-11-24T22:57:46.040Z,2.77
2022-11-24T23:00:19.986Z,2.73
2022-11-24T23:02:52.579Z,2.93
2022-11-24T23:05:23.114Z,3.30
2022-11-24T23:07:53.088Z,3.03
2022-11-24T23:10:23.819Z,4.07
2022-11-24T23:12:54.706Z,3.00
2022-11-24T23:15:24.954Z,2.70
2022-11-24T23:17:57.441Z,2.80
2022-11-24T23:20:28.082Z,3.17
2022-11-24T23:22:58.026Z,2.63
2022-11-24T23:25:28.463Z,2.93
2022-11-24T23:27:58.393Z,3.23
2022-11-24T23:30:29.534Z,3.23
2022-11-24T23:33:02.046Z,2.80
2022-11-24T23:35:32.418Z,3.13
2022-11-24T23:38:09.537Z,2.40
2022-11-24T23:40:40.412Z,2.83
2022-11-24T23:43:10.400Z,3.00
2022-11-24T23:45:40.768Z,2.90
2022-11-24T23:48:13.397Z,2.60
2022-11-24T23:50:43.682Z,2.63
2022-11-24T23:53:13.612Z,2.13
2022-11-24T23:55:43.996Z,2.40
2022-11-24T23:58:13.891Z,2.57
